Latest Weather Observations for Cape Byron

IDN60801

Issued at 7:52 am EST Tuesday 7 July 2020 (issued every 10 minutes, with the page automatically refreshed every 10 minutes)

About weather observations | Map of weather stations | Latest weather observations for NSW | Other Formats
Station Details ID: 058216 Name: CAPE BYRON AWS Lat: -28.64 Lon: 153.64 Height: 95.0 m
Data from the previous 72 hours. | See also: Recent months at Cape Byron
Date/Time
EST
Temp
°C
App
Temp
°C
Dew
Point
°C
Rel
Hum
%
Delta-T
°C
Wind Press
QNH
hPa
Press
MSL
hPa
Rain since
9am
mm
Dir  Spd
km/h
Gust
km/h
Spd
kts
Gust
kts
07/07:30am 12.6 7.2 8.1 74 2.2 SW 26 32 14 17 1027.1 1027.0 0.0
07/07:00am 12.8 7.1 8.3 74 2.2 SW 28 33 15 18 1027.0 1026.9 0.0
07/06:30am 12.7 7.8 8.4 75 2.1 SW 24 33 13 18 1026.6 1026.6 0.0
07/06:00am 12.6 6.9 8.3 75 2.1 SW 28 33 15 18 1026.4 1026.4 0.0
07/05:30am 12.4 5.9 8.3 76 2.0 SW 32 41 17 22 1026.0 1026.0 0.0
07/05:00am 12.0 6.3 8.5 79 1.7 SW 28 35 15 19 1025.6 1025.5 0.0
07/04:30am 12.1 5.7 8.6 79 1.7 SW 32 41 17 22 1025.4 1025.3 0.0
07/04:00am 12.1 6.5 8.6 79 1.7 SW 28 35 15 19 1025.4 1025.3 0.0
07/03:30am 12.5 6.1 8.6 77 2.0 WSW 32 39 17 21 1025.5 1025.4 0.0
07/03:00am 12.8 6.2 8.7 76 2.0 SW 33 39 18 21 1025.7 1025.6 0.0
07/02:30am 12.7 6.7 8.8 77 2.0 SW 30 37 16 20 1025.7 1025.6 0.0
07/02:00am 12.7 6.8 9.0 78 1.9 SW 30 35 16 19 1025.7 1025.6 0.0
07/01:30am 12.8 7.3 9.1 78 1.9 SW 28 35 15 19 1026.0 1026.0 0.0
07/01:00am 13.2 7.7 9.1 76 2.1 SW 28 35 15 19 1026.2 1026.2 0.0
07/12:30am 13.5 8.0 9.2 75 2.2 SW 28 32 15 17 1026.3 1026.3 0.0
07/12:00am 14.2 9.4 10.4 78 2.0 SW 26 32 14 17 1026.6 1026.6 0.0
 
Date/Time
EST
Temp
°C
App
Temp
°C
Dew
Point
°C
Rel
Hum
%
Delta-T
°C
Wind Press
QNH
hPa
Press
MSL
hPa
Rain since
9am
mm
Dir  Spd
km/h
Gust
km/h
Spd
kts
Gust
kts
06/11:30pm 14.6 10.3 10.8 78 2.0 SW 24 30 13 16 1027.0 1026.9 0.0
06/11:00pm 14.5 11.0 10.9 79 1.9 SW 20 26 11 14 1027.3 1027.2 0.0
06/10:30pm 14.7 11.3 11.3 80 1.8 SW 20 26 11 14 1027.5 1027.4 0.0
06/10:00pm 14.7 10.8 10.7 77 2.1 SW 22 28 12 15 1027.4 1027.3 0.0
06/09:30pm 14.6 10.3 9.4 71 2.7 SW 22 26 12 14 1027.2 1027.1 0.0
06/09:00pm 14.4 10.7 10.2 76 2.2 SSW 20 24 11 13 1027.2 1027.1 0.0
06/08:30pm 14.6 10.1 10.2 75 2.3 SW 24 30 13 16 1027.1 1027.0 0.0
06/08:00pm 14.5 10.0 10.1 75 2.3 SSW 24 30 13 16 1027.2 1027.1 0.0
06/07:30pm 14.5 10.7 9.9 74 2.4 SSW 20 24 11 13 1027.1 1027.0 0.0
06/07:00pm 14.6 10.4 9.6 72 2.6 SSW 22 26 12 14 1027.0 1026.9 0.0
06/06:30pm 14.6 10.8 9.8 73 2.5 SSW 20 26 11 14 1026.7 1026.7 0.0
06/06:00pm 14.6 10.8 9.8 73 2.5 SSW 20 22 11 12 1026.4 1026.4 0.0
06/05:30pm 14.9 11.4 10.1 73 2.5 SSW 19 24 10 13 1026.1 1026.1 0.0
06/05:00pm 15.4 11.9 10.2 71 2.7 SSW 19 24 10 13 1025.7 1025.6 0.0
06/04:30pm 16.2 12.6 10.7 70 2.9 SSW 20 28 11 15 1025.5 1025.4 0.0
06/04:00pm 16.4 12.0 10.3 67 3.2 SSW 24 30 13 16 1025.3 1025.2 0.0
06/03:30pm 16.7 11.6 10.5 67 3.3 S 28 33 15 18 1025.3 1025.2 0.0
06/03:00pm 17.2 12.6 11.0 67 3.3 S 26 33 14 18 1025.3 1025.2 0.0
06/02:30pm 17.4 12.9 10.1 62 3.9 S 24 33 13 18 1025.2 1025.1 0.0
06/02:00pm 17.9 13.6 9.3 57 4.5 SSW 22 33 12 18 1025.2 1025.1 0.0
06/01:30pm 17.3 13.5 9.0 58 4.3 SSW 19 26 10 14 1025.4 1025.3 0.0
06/01:00pm 16.9 12.5 8.8 59 4.2 SSW 22 32 12 17 1025.5 1025.4 0.0
06/12:30pm 17.5 13.9 8.4 55 4.7 SW 17 24 9 13 1025.6 1025.5 0.0
06/12:00pm 17.3 13.0 7.9 54 4.8 SSW 20 30 11 16 1025.9 1025.9 0.0
06/11:30am 16.7 12.2 8.4 58 4.3 SW 22 30 12 16 1026.2 1026.2 0.0
06/11:00am 16.2 11.5 7.7 57 4.3 SSW 22 32 12 17 1026.4 1026.4 0.0
06/10:30am 15.5 10.8 7.8 60 3.9 SW 22 32 12 17 1026.6 1026.6 0.0
06/10:00am 14.5 9.2 6.8 60 3.7 SW 24 33 13 18 1026.5 1026.5 0.0
06/09:30am 13.8 7.3 6.4 61 3.6 SW 30 37 16 20 1026.3 1026.3 0.0
06/09:00am 13.3 7.0 5.7 60 3.6 SW 28 39 15 21 1026.2 1026.2 0.0
06/08:30am 12.7 6.0 5.6 62 3.3 SW 30 37 16 20 1026.0 1026.0 0.0
06/08:00am 12.2 5.8 5.1 62 3.3 SW 28 35 15 19 1025.8 1025.8 0.0
06/07:30am 11.5 4.3 4.9 64 3.0 SW 32 39 17 21 1025.4 1025.3 0.0
06/07:00am 11.1 3.7 5.0 66 2.8 SW 33 39 18 21 1025.1 1025.0 0.0
06/06:30am 11.5 4.3 5.2 65 2.9 SW 32 41 17 22 1024.6 1024.5 0.0
06/06:00am 11.1 4.3 5.2 67 2.7 SW 30 39 16 21 1024.3 1024.2 0.0
06/05:30am 11.2 4.1 5.5 68 2.6 SW 32 41 17 22 1024.0 1023.9 0.0
06/05:00am 11.6 4.4 5.7 67 2.7 SW 33 39 18 21 1023.7 1023.6 0.0
06/04:30am 11.5 3.9 5.8 68 2.7 SW 35 44 19 24 1023.4 1023.3 0.0
06/04:00am 11.6 4.5 5.7 67 2.7 SW 32 39 17 21 1023.5 1023.4 0.0
06/03:30am 11.6 4.4 5.7 67 2.8 SW 33 39 18 21 1023.4 1023.3 0.0
06/03:00am 11.6 4.5 5.7 67 2.7 SW 32 41 17 22 1023.5 1023.4 0.0
06/02:30am 11.9 4.3 5.8 66 2.9 SW 35 41 19 22 1023.4 1023.3 0.0
06/02:00am 11.9 5.0 6.4 69 2.6 SW 32 35 17 19 1023.6 1023.5 0.0
06/01:30am 13.2 8.0 7.2 67 2.9 SW 24 30 13 16 1023.4 1023.3 0.0
06/01:00am 13.8 9.5 7.8 67 3.0 SW 20 24 11 13 1023.6 1023.5 0.0
06/12:30am 14.3 10.3 8.3 67 3.0 SSW 19 22 10 12 1023.9 1023.8 0.0
06/12:00am 14.5 11.6 8.0 65 3.2 SW 13 17 7 9 1024.0 1023.9 0.0
 
Date/Time
EST
Temp
°C
App
Temp
°C
Dew
Point
°C
Rel
Hum
%
Delta-T
°C
Wind Press
QNH
hPa
Press
MSL
hPa
Rain since
9am
mm
Dir  Spd
km/h
Gust
km/h
Spd
kts
Gust
kts
05/11:30pm 15.0 12.1 8.0 63 3.5 SW 13 15 7 8 1024.0 1023.9 0.0
05/11:00pm 15.0 12.0 7.8 62 3.6 SW 13 15 7 8 1024.1 1024.0 0.0
05/10:30pm 15.0 12.1 8.0 63 3.5 SW 13 17 7 9 1024.2 1024.1 0.0
05/10:00pm 14.9 11.9 7.7 62 3.6 SSW 13 17 7 9 1024.2 1024.1 0.0
05/09:30pm 15.1 12.4 7.4 60 3.8 SW 11 13 6 7 1023.9 1023.8 0.0
05/09:00pm 15.1 12.0 7.4 60 3.8 SW 13 15 7 8 1023.8 1023.7 0.0
05/08:30pm 14.7 11.5 6.8 59 3.9 SSW 13 17 7 9 1023.7 1023.6 0.0
05/08:00pm 14.6 11.0 6.7 59 3.8 SSW 15 17 8 9 1023.4 1023.3 0.0
05/07:30pm 15.4 12.0 7.7 60 3.9 S 15 19 8 10 1023.1 1023.0 0.0
05/07:00pm 15.2 11.8 7.7 61 3.7 SSE 15 19 8 10 1022.7 1022.6 0.0
05/06:30pm 15.3 11.8 7.1 58 4.1 S 15 22 8 12 1022.6 1022.5 0.0
05/06:00pm 14.8 12.1 7.4 61 3.7 S 11 17 6 9 1022.0 1021.9 0.0
05/05:30pm 15.8 11.5 5.4 50 5.0 SSE 17 24 9 13 1021.6 1021.5 0.0
05/05:00pm 15.9 11.1 4.6 47 5.3 SSE 19 24 10 13 1021.2 1021.1 0.0
05/04:30pm 16.1 11.5 5.4 49 5.1 SSE 19 22 10 12 1020.7 1020.6 0.0
05/04:00pm 16.3 12.2 4.4 45 5.6 SSE 15 22 8 12 1020.4 1020.3 0.0
05/03:30pm 16.6 12.2 4.9 46 5.6 SSE 17 20 9 11 1020.3 1020.2 0.0
05/03:00pm 16.7 11.9 4.7 45 5.7 SSE 19 26 10 14 1020.7 1020.6 0.0
05/02:30pm 16.9 10.8 2.9 39 6.4 S 24 28 13 15 1020.7 1020.6 0.0
05/02:00pm 16.9 11.6 2.1 37 6.7 S 19 22 10 12 1020.8 1020.7 0.0
05/01:30pm 17.1 12.5 1.5 35 7.0 S 15 20 8 11 1020.9 1020.8 0.0
05/01:00pm 16.9 11.8 1.0 34 7.0 SW 17 22 9 12 1021.0 1020.9 0.0
05/12:30pm 16.8 11.5 -0.9 30 7.5 SW 17 24 9 13 1021.2 1021.1 0.0
05/12:00pm 16.2 10.9 -0.9 31 7.2 SW 17 26 9 14 1021.6 1021.5 0.0
05/11:30am 15.7 10.7 -1.4 31 7.1 SW 15 20 8 11 1022.2 1022.1 0.0
05/11:00am 15.3 10.3 -1.3 32 6.8 W 15 22 8 12 1022.5 1022.4 0.0
05/10:30am 14.0 8.2 -0.4 37 6.0 WSW 20 26 11 14 1022.7 1022.6 0.0
05/10:00am 13.4 7.0 -1.7 35 6.0 WSW 22 28 12 15 1022.9 1022.8 0.0
05/09:30am 12.8 6.9 -1.1 38 5.6 WSW 20 30 11 16 1022.9 1022.8 0.0
05/09:00am 12.2 6.2 -1.7 38 5.5 WSW 20 28 11 15 1022.7 1022.6 0.0
05/08:30am 12.0 5.1 -3.0 35 5.8 WSW 24 30 13 16 1022.4 1022.3 0.0
05/08:00am 11.6 4.2 -3.3 35 5.6 WSW 26 33 14 18 1022.0 1021.9 0.0
05/07:30am 11.2 3.5 -2.9 37 5.4 WSW 28 35 15 19 1021.7 1021.6 0.0
05/07:00am 10.9 2.8 -2.8 38 5.2 WSW 30 35 16 19 1021.2 1021.1 0.0
05/06:30am 9.4 2.0 -0.8 49 4.0 W 28 35 15 19 1020.8 1020.7 0.0
05/06:00am 10.7 2.4 -2.0 41 4.9 WSW 32 37 17 20 1020.4 1020.3 0.0
05/05:30am 11.3 2.9 -2.8 37 5.4 WSW 32 37 17 20 1020.0 1019.9 0.0
05/05:00am 11.7 3.2 -2.9 36 5.6 WSW 32 37 17 20 1019.8 1019.7 0.0
05/04:30am 11.6 3.2 -2.6 37 5.5 WSW 32 37 17 20 1019.8 1019.7 0.0
05/04:00am 11.5 3.5 -2.0 39 5.3 WSW 30 35 16 19 1019.8 1019.7 0.0
05/03:30am 11.3 3.1 -1.1 42 4.9 WSW 32 37 17 20 1020.0 1019.9 0.0
05/03:00am 11.0 2.9 -0.5 45 4.6 WSW 32 37 17 20 1020.2 1020.1 0.0
05/02:30am 11.0 2.9 -0.2 46 4.5 WSW 32 39 17 21 1020.3 1020.2 0.0
05/02:00am 10.8 2.8 0.2 48 4.3 WSW 32 39 17 21 1020.3 1020.2 0.0
05/01:30am 11.0 3.0 0.4 48 4.4 WSW 32 37 17 20 1020.6 1020.5 0.0
05/01:00am 11.2 3.6 0.6 48 4.4 WSW 30 39 16 21 1020.8 1020.7 0.0
05/12:30am 11.2 3.2 0.3 47 4.5 SW 32 41 17 22 1020.9 1020.8 0.0
05/12:00am 11.1 3.1 0.5 48 4.4 SW 32 41 17 22 1020.8 1020.7 0.0
 
Date/Time
EST
Temp
°C
App
Temp
°C
Dew
Point
°C
Rel
Hum
%
Delta-T
°C
Wind Press
QNH
hPa
Press
MSL
hPa
Rain since
9am
mm
Dir  Spd
km/h
Gust
km/h
Spd
kts
Gust
kts
04/11:30pm 10.8 3.2 0.8 50 4.1 WSW 30 37 16 20 1020.9 1020.8 0.0
04/11:00pm 11.2 3.3 0.9 49 4.3 WSW 32 39 17 21 1021.1 1021.0 0.0
04/10:30pm 11.5 4.8 1.5 50 4.2 WSW 26 33 14 18 1021.2 1021.1 0.0
04/10:00pm 12.0 5.3 1.3 48 4.5 SW 26 30 14 16 1021.2 1021.1 0.0
04/09:30pm 12.7 6.4 1.7 47 4.7 SW 24 30 13 16 1021.0 1020.9 0.0
04/09:00pm 13.1 6.5 1.8 46 4.9 SW 26 35 14 19 1020.8 1020.7 0.0
04/08:30pm 13.6 7.0 2.2 46 5.0 SW 26 35 14 19 1020.4 1020.3 0.0
04/08:00pm 13.9 7.8 2.8 47 4.9 SW 24 32 13 17 1020.0 1019.9 0.0
04/07:30pm 13.8 8.2 5.2 56 4.0 SW 24 30 13 16 1019.9 1019.8 0.0
04/07:00pm 13.9 7.9 5.5 57 4.0 SSW 26 32 14 17 1019.5 1019.4 0.0
04/06:30pm 14.2 7.9 5.6 56 4.1 SSW 28 37 15 20 1018.9 1018.8 0.0
04/06:00pm 14.4 7.8 4.4 51 4.6 SSW 28 33 15 18 1018.5 1018.4 0.0
04/05:30pm 15.1 9.0 3.0 44 5.5 SSW 24 28 13 15 1018.2 1018.1 0.0
04/05:00pm 15.9 10.5 2.3 40 6.1 SW 20 24 11 13 1017.9 1017.8 0.0
04/04:30pm 16.3 10.8 2.0 38 6.4 WSW 20 26 11 14 1017.5 1017.4 0.0
04/04:00pm 16.8 10.9 1.7 36 6.7 WSW 22 28 12 15 1017.0 1016.8 0.0
04/03:30pm 17.6 11.7 1.6 34 7.2 WSW 22 43 12 23 1016.8 1016.6 0.0
04/03:00pm 17.7 10.5 0.8 32 7.5 WSW 28 43 15 23 1016.7 1016.5 0.0
04/02:30pm 17.8 12.7 4.0 40 6.5 WSW 20 37 11 20 1016.5 1016.3 0.0
04/02:00pm 17.6 12.5 4.2 41 6.3 WSW 20 33 11 18 1016.5 1016.3 0.0
04/01:30pm 17.0 12.4 3.7 41 6.2 W 17 39 9 21 1016.7 1016.5 0.0
04/01:00pm 16.4 9.3 3.5 42 6.0 WSW 30 43 16 23 1017.0 1016.8 0.0
04/12:30pm 16.3 10.7 3.4 42 6.0 W 22 33 12 18 1017.5 1017.4 0.0
04/12:00pm 16.0 9.3 1.3 37 6.5 WSW 26 39 14 21 1018.1 1018.0 0.0
04/11:30am 16.0 10.5 3.8 44 5.7 W 22 32 12 17 1018.3 1018.2 0.0
04/11:00am 15.0 8.7 3.5 46 5.2 WSW 26 37 14 20 1019.0 1018.9 0.0
04/10:30am 14.3 9.1 3.7 49 4.8 WSW 20 32 11 17 1019.6 1019.5 0.0
04/10:01am 13.9 6.4 3.7 50 4.6 WSW 32 50 17 27 1019.7 1019.6 0.0
04/10:00am 14.0 6.4 3.8 50 4.6 W 33 50 18 27 1019.6 1019.5 0.0
04/09:38am 13.7 7.0 3.5 50 4.6 W 28 46 15 25 1019.7 1019.6 0.0
04/09:30am 13.5 7.7 4.6 55 4.1 W 24 35 13 19 1019.9 1019.8 0.0
04/09:00am 12.9 6.7 4.3 56 3.9 W 26 39 14 21 1019.8 1019.7 2.2
04/08:30am 12.5 6.3 4.5 58 3.7 W 26 39 14 21 1019.7 1019.6 2.2
04/08:00am 11.9 6.2 4.9 62 3.2 W 24 35 13 19 1019.6 1019.5 2.2

Other formats

Comma delimited format used in spreadsheet applications
http://www.bom.gov.au/fwo/IDN60801/IDN60801.94599.axf

JavaScript Object Notation format (JSON) in row-major order
http://www.bom.gov.au/fwo/IDN60801/IDN60801.94599.json

Data quality

Most of these data are generated automatically and are frequently updated. Quality checks on data are not normally performed. It is possible for incorrect values to appear. Refer to information at About Latest Weather Observations and please check the disclaimer before using these data.